sensor_id;sensor_type;location;lat;lon;timestamp;P1;durP1;ratioP1;P2;durP2;ratioP2
19087;SDS011;9676;50.916;13.352;2023-04-12T00:02:04;10.27;;;9.47;;
19087;SDS011;9676;50.916;13.352;2023-04-12T00:04:53;10.47;;;9.60;;
19087;SDS011;9676;50.916;13.352;2023-04-12T00:07:44;10.50;;;9.60;;
19087;SDS011;9676;50.916;13.352;2023-04-12T00:10:34;10.73;;;9.83;;
19087;SDS011;9676;50.916;13.352;2023-04-12T00:13:24;10.57;;;9.77;;
19087;SDS011;9676;50.916;13.352;2023-04-12T00:16:13;10.10;;;9.30;;
19087;SDS011;9676;50.916;13.352;2023-04-12T00:19:03;10.27;;;9.47;;
19087;SDS011;9676;50.916;13.352;2023-04-12T00:21:52;10.10;;;9.30;;
19087;SDS011;9676;50.916;13.352;2023-04-12T00:24:42;10.67;;;9.60;;
19087;SDS011;9676;50.916;13.352;2023-04-12T00:27:35;10.40;;;9.50;;
19087;SDS011;9676;50.916;13.352;2023-04-12T00:30:24;10.23;;;9.23;;
19087;SDS011;9676;50.916;13.352;2023-04-12T00:33:14;10.20;;;9.40;;
19087;SDS011;9676;50.916;13.352;2023-04-12T00:36:03;10.80;;;9.80;;
19087;SDS011;9676;50.916;13.352;2023-04-12T00:38:54;10.60;;;9.70;;
19087;SDS011;9676;50.916;13.352;2023-04-12T00:41:43;9.90;;;9.20;;
19087;SDS011;9676;50.916;13.352;2023-04-12T00:44:34;10.30;;;9.50;;
19087;SDS011;9676;50.916;13.352;2023-04-12T00:47:23;10.50;;;9.60;;
19087;SDS011;9676;50.916;13.352;2023-04-12T00:50:15;10.20;;;9.20;;
19087;SDS011;9676;50.916;13.352;2023-04-12T00:53:05;10.63;;;9.73;;
19087;SDS011;9676;50.916;13.352;2023-04-12T00:55:56;10.63;;;9.73;;
19087;SDS011;9676;50.916;13.352;2023-04-12T00:58:46;10.47;;;9.70;;
19087;SDS011;9676;50.916;13.352;2023-04-12T01:01:37;10.27;;;9.37;;
19087;SDS011;9676;50.916;13.352;2023-04-12T01:04:27;10.67;;;9.77;;
19087;SDS011;9676;50.916;13.352;2023-04-12T01:07:18;10.30;;;9.50;;
19087;SDS011;9676;50.916;13.352;2023-04-12T01:10:26;10.90;;;9.90;;
19087;SDS011;9676;50.916;13.352;2023-04-12T01:13:26;10.50;;;9.70;;
19087;SDS011;9676;50.916;13.352;2023-04-12T01:16:23;10.20;;;9.40;;
19087;SDS011;9676;50.916;13.352;2023-04-12T01:22:51;10.30;;;9.50;;
19087;SDS011;9676;50.916;13.352;2023-04-12T01:26:08;10.63;;;9.70;;
19087;SDS011;9676;50.916;13.352;2023-04-12T01:29:10;10.97;;;10.07;;
19087;SDS011;9676;50.916;13.352;2023-04-12T01:32:02;10.33;;;9.57;;
19087;SDS011;9676;50.916;13.352;2023-04-12T01:34:52;10.00;;;9.30;;
19087;SDS011;9676;50.916;13.352;2023-04-12T01:37:43;10.20;;;9.40;;
19087;SDS011;9676;50.916;13.352;2023-04-12T01:40:36;10.23;;;9.33;;
19087;SDS011;9676;50.916;13.352;2023-04-12T01:43:27;10.17;;;9.27;;
19087;SDS011;9676;50.916;13.352;2023-04-12T01:46:18;10.17;;;9.43;;
19087;SDS011;9676;50.916;13.352;2023-04-12T01:49:11;10.30;;;9.50;;
19087;SDS011;9676;50.916;13.352;2023-04-12T01:52:02;10.00;;;9.30;;
19087;SDS011;9676;50.916;13.352;2023-04-12T01:54:57;10.33;;;9.50;;
19087;SDS011;9676;50.916;13.352;2023-04-12T01:57:51;10.13;;;9.40;;
19087;SDS011;9676;50.916;13.352;2023-04-12T02:00:41;10.77;;;9.87;;
19087;SDS011;9676;50.916;13.352;2023-04-12T02:03:34;10.23;;;9.43;;
19087;SDS011;9676;50.916;13.352;2023-04-12T02:06:25;10.30;;;9.50;;
19087;SDS011;9676;50.916;13.352;2023-04-12T02:09:15;10.70;;;9.80;;
19087;SDS011;9676;50.916;13.352;2023-04-12T02:12:04;10.70;;;9.80;;
19087;SDS011;9676;50.916;13.352;2023-04-12T02:14:55;11.03;;;10.13;;
19087;SDS011;9676;50.916;13.352;2023-04-12T02:17:45;10.70;;;9.80;;
19087;SDS011;9676;50.916;13.352;2023-04-12T02:20:35;10.30;;;9.50;;
19087;SDS011;9676;50.916;13.352;2023-04-12T02:23:25;10.03;;;9.30;;
19087;SDS011;9676;50.916;13.352;2023-04-12T02:26:14;10.60;;;9.80;;
19087;SDS011;9676;50.916;13.352;2023-04-12T02:29:04;10.70;;;9.73;;
19087;SDS011;9676;50.916;13.352;2023-04-12T02:31:56;10.50;;;9.60;;
19087;SDS011;9676;50.916;13.352;2023-04-12T02:34:46;10.60;;;9.70;;
19087;SDS011;9676;50.916;13.352;2023-04-12T02:37:40;10.20;;;9.40;;
19087;SDS011;9676;50.916;13.352;2023-04-12T02:40:30;10.00;;;9.30;;
19087;SDS011;9676;50.916;13.352;2023-04-12T02:43:19;10.13;;;9.40;;
19087;SDS011;9676;50.916;13.352;2023-04-12T02:46:18;10.30;;;9.50;;
19087;SDS011;9676;50.916;13.352;2023-04-12T02:49:16;10.20;;;9.40;;
19087;SDS011;9676;50.916;13.352;2023-04-12T02:52:07;10.93;;;9.93;;
19087;SDS011;9676;50.916;13.352;2023-04-12T02:55:06;10.10;;;9.40;;
19087;SDS011;9676;50.916;13.352;2023-04-12T02:57:56;10.20;;;9.40;;
19087;SDS011;9676;50.916;13.352;2023-04-12T03:00:47;10.50;;;9.70;;
19087;SDS011;9676;50.916;13.352;2023-04-12T03:03:42;10.60;;;9.70;;
19087;SDS011;9676;50.916;13.352;2023-04-12T03:06:49;10.03;;;9.30;;
19087;SDS011;9676;50.916;13.352;2023-04-12T03:09:47;10.30;;;9.50;;
19087;SDS011;9676;50.916;13.352;2023-04-12T03:12:41;10.20;;;9.40;;
19087;SDS011;9676;50.916;13.352;2023-04-12T03:15:40;10.87;;;9.97;;
19087;SDS011;9676;50.916;13.352;2023-04-12T03:18:30;10.30;;;9.40;;
19087;SDS011;9676;50.916;13.352;2023-04-12T03:21:20;10.60;;;9.73;;
19087;SDS011;9676;50.916;13.352;2023-04-12T03:24:10;10.07;;;9.33;;
19087;SDS011;9676;50.916;13.352;2023-04-12T03:26:59;10.50;;;9.60;;
19087;SDS011;9676;50.916;13.352;2023-04-12T03:29:53;10.63;;;9.63;;
19087;SDS011;9676;50.916;13.352;2023-04-12T03:32:44;10.47;;;9.67;;
19087;SDS011;9676;50.916;13.352;2023-04-12T03:35:33;10.30;;;9.60;;
19087;SDS011;9676;50.916;13.352;2023-04-12T03:38:23;10.37;;;9.57;;
19087;SDS011;9676;50.916;13.352;2023-04-12T03:41:14;10.20;;;9.40;;
19087;SDS011;9676;50.916;13.352;2023-04-12T03:44:04;10.40;;;9.60;;
19087;SDS011;9676;50.916;13.352;2023-04-12T03:46:56;9.87;;;9.17;;
19087;SDS011;9676;50.916;13.352;2023-04-12T03:49:53;10.37;;;9.57;;
19087;SDS011;9676;50.916;13.352;2023-04-12T03:52:59;10.27;;;9.47;;
19087;SDS011;9676;50.916;13.352;2023-04-12T03:55:51;10.20;;;9.40;;
19087;SDS011;9676;50.916;13.352;2023-04-12T03:58:41;10.00;;;9.30;;
19087;SDS011;9676;50.916;13.352;2023-04-12T04:01:31;10.47;;;9.60;;
19087;SDS011;9676;50.916;13.352;2023-04-12T04:04:22;10.53;;;9.50;;
19087;SDS011;9676;50.916;13.352;2023-04-12T04:07:16;10.20;;;9.40;;
19087;SDS011;9676;50.916;13.352;2023-04-12T04:10:06;10.37;;;9.57;;
19087;SDS011;9676;50.916;13.352;2023-04-12T04:12:59;10.47;;;9.60;;
19087;SDS011;9676;50.916;13.352;2023-04-12T04:15:49;9.90;;;9.30;;
19087;SDS011;9676;50.916;13.352;2023-04-12T04:18:43;10.10;;;9.40;;
19087;SDS011;9676;50.916;13.352;2023-04-12T04:21:37;10.10;;;9.33;;
19087;SDS011;9676;50.916;13.352;2023-04-12T04:24:27;10.27;;;9.47;;
19087;SDS011;9676;50.916;13.352;2023-04-12T04:27:20;9.97;;;9.27;;
19087;SDS011;9676;50.916;13.352;2023-04-12T04:30:11;10.00;;;9.30;;
19087;SDS011;9676;50.916;13.352;2023-04-12T04:33:04;10.10;;;9.30;;
19087;SDS011;9676;50.916;13.352;2023-04-12T04:35:54;10.10;;;9.40;;
19087;SDS011;9676;50.916;13.352;2023-04-12T04:38:49;10.00;;;9.30;;
19087;SDS011;9676;50.916;13.352;2023-04-12T04:41:54;10.50;;;9.50;;
19087;SDS011;9676;50.916;13.352;2023-04-12T04:44:53;10.33;;;9.50;;
19087;SDS011;9676;50.916;13.352;2023-04-12T04:47:55;9.80;;;9.00;;
19087;SDS011;9676;50.916;13.352;2023-04-12T04:50:45;10.33;;;9.30;;
19087;SDS011;9676;50.916;13.352;2023-04-12T04:53:35;10.03;;;9.30;;
19087;SDS011;9676;50.916;13.352;2023-04-12T04:56:26;9.83;;;9.10;;
19087;SDS011;9676;50.916;13.352;2023-04-12T04:59:16;10.20;;;9.40;;
19087;SDS011;9676;50.916;13.352;2023-04-12T05:02:06;10.67;;;9.60;;
19087;SDS011;9676;50.916;13.352;2023-04-12T05:04:56;10.77;;;9.77;;
19087;SDS011;9676;50.916;13.352;2023-04-12T05:07:47;10.20;;;9.40;;
19087;SDS011;9676;50.916;13.352;2023-04-12T05:10:37;10.13;;;9.33;;
19087;SDS011;9676;50.916;13.352;2023-04-12T05:13:28;10.13;;;9.30;;
19087;SDS011;9676;50.916;13.352;2023-04-12T05:16:18;10.13;;;9.33;;
19087;SDS011;9676;50.916;13.352;2023-04-12T05:19:07;9.70;;;9.00;;
19087;SDS011;9676;50.916;13.352;2023-04-12T05:21:57;11.87;;;9.40;;
19087;SDS011;9676;50.916;13.352;2023-04-12T05:24:46;10.27;;;9.33;;
19087;SDS011;9676;50.916;13.352;2023-04-12T05:27:36;9.90;;;9.10;;
19087;SDS011;9676;50.916;13.352;2023-04-12T05:30:29;10.73;;;9.63;;
19087;SDS011;9676;50.916;13.352;2023-04-12T05:33:20;10.20;;;9.30;;
19087;SDS011;9676;50.916;13.352;2023-04-12T05:36:10;11.07;;;10.03;;
19087;SDS011;9676;50.916;13.352;2023-04-12T05:39:00;10.00;;;9.20;;
19087;SDS011;9676;50.916;13.352;2023-04-12T05:41:52;9.80;;;9.00;;
19087;SDS011;9676;50.916;13.352;2023-04-12T05:44:44;9.97;;;9.10;;
19087;SDS011;9676;50.916;13.352;2023-04-12T05:47:38;10.07;;;9.27;;
19087;SDS011;9676;50.916;13.352;2023-04-12T05:50:27;9.70;;;8.93;;
19087;SDS011;9676;50.916;13.352;2023-04-12T05:53:17;9.87;;;9.07;;
19087;SDS011;9676;50.916;13.352;2023-04-12T05:56:07;9.97;;;9.07;;
19087;SDS011;9676;50.916;13.352;2023-04-12T05:58:57;10.40;;;9.43;;
19087;SDS011;9676;50.916;13.352;2023-04-12T06:01:48;9.80;;;8.90;;
19087;SDS011;9676;50.916;13.352;2023-04-12T06:04:40;9.97;;;9.17;;
19087;SDS011;9676;50.916;13.352;2023-04-12T06:07:38;10.00;;;9.10;;
19087;SDS011;9676;50.916;13.352;2023-04-12T06:10:33;10.13;;;9.13;;
19087;SDS011;9676;50.916;13.352;2023-04-12T06:13:23;9.87;;;8.90;;
19087;SDS011;9676;50.916;13.352;2023-04-12T06:16:13;9.47;;;8.70;;
19087;SDS011;9676;50.916;13.352;2023-04-12T06:19:03;9.97;;;9.07;;
19087;SDS011;9676;50.916;13.352;2023-04-12T06:21:54;9.97;;;9.10;;
19087;SDS011;9676;50.916;13.352;2023-04-12T06:24:43;9.90;;;9.00;;
19087;SDS011;9676;50.916;13.352;2023-04-12T06:27:33;9.70;;;8.90;;
19087;SDS011;9676;50.916;13.352;2023-04-12T06:30:22;9.70;;;8.80;;
19087;SDS011;9676;50.916;13.352;2023-04-12T06:33:13;9.77;;;8.87;;
19087;SDS011;9676;50.916;13.352;2023-04-12T06:36:03;9.33;;;8.53;;
19087;SDS011;9676;50.916;13.352;2023-04-12T06:38:55;9.90;;;9.03;;
19087;SDS011;9676;50.916;13.352;2023-04-12T06:41:45;9.50;;;8.70;;
19087;SDS011;9676;50.916;13.352;2023-04-12T06:44:39;9.70;;;8.80;;
19087;SDS011;9676;50.916;13.352;2023-04-12T06:47:28;9.70;;;8.90;;
19087;SDS011;9676;50.916;13.352;2023-04-12T06:50:19;10.00;;;9.10;;
19087;SDS011;9676;50.916;13.352;2023-04-12T06:53:09;10.63;;;9.60;;
19087;SDS011;9676;50.916;13.352;2023-04-12T06:56:03;10.07;;;9.13;;
19087;SDS011;9676;50.916;13.352;2023-04-12T06:58:53;10.13;;;9.20;;
19087;SDS011;9676;50.916;13.352;2023-04-12T07:01:45;10.00;;;9.10;;
19087;SDS011;9676;50.916;13.352;2023-04-12T07:04:34;10.00;;;9.10;;
19087;SDS011;9676;50.916;13.352;2023-04-12T07:07:24;9.57;;;8.70;;
19087;SDS011;9676;50.916;13.352;2023-04-12T07:10:13;9.90;;;8.90;;
19087;SDS011;9676;50.916;13.352;2023-04-12T07:13:04;9.97;;;9.00;;
19087;SDS011;9676;50.916;13.352;2023-04-12T07:15:54;10.10;;;9.10;;
19087;SDS011;9676;50.916;13.352;2023-04-12T07:18:44;9.87;;;8.80;;
19087;SDS011;9676;50.916;13.352;2023-04-12T07:21:34;9.70;;;8.83;;
19087;SDS011;9676;50.916;13.352;2023-04-12T07:24:24;9.90;;;9.00;;
19087;SDS011;9676;50.916;13.352;2023-04-12T07:27:13;10.10;;;9.10;;
19087;SDS011;9676;50.916;13.352;2023-04-12T07:30:05;10.77;;;9.23;;
19087;SDS011;9676;50.916;13.352;2023-04-12T07:32:56;9.60;;;8.70;;
19087;SDS011;9676;50.916;13.352;2023-04-12T07:36:05;10.73;;;9.10;;
19087;SDS011;9676;50.916;13.352;2023-04-12T07:38:55;11.77;;;9.17;;
19087;SDS011;9676;50.916;13.352;2023-04-12T07:41:45;10.60;;;9.50;;
19087;SDS011;9676;50.916;13.352;2023-04-12T07:44:35;9.63;;;8.73;;
19087;SDS011;9676;50.916;13.352;2023-04-12T07:47:26;9.67;;;8.77;;
19087;SDS011;9676;50.916;13.352;2023-04-12T07:50:16;9.43;;;8.63;;
19087;SDS011;9676;50.916;13.352;2023-04-12T07:53:18;9.50;;;8.60;;
19087;SDS011;9676;50.916;13.352;2023-04-12T07:56:08;9.50;;;8.50;;
19087;SDS011;9676;50.916;13.352;2023-04-12T07:58:58;9.03;;;8.20;;
19087;SDS011;9676;50.916;13.352;2023-04-12T08:01:47;9.20;;;8.30;;
19087;SDS011;9676;50.916;13.352;2023-04-12T08:04:38;9.07;;;8.17;;
19087;SDS011;9676;50.916;13.352;2023-04-12T08:07:30;11.63;;;9.07;;
19087;SDS011;9676;50.916;13.352;2023-04-12T08:10:20;9.30;;;8.40;;
19087;SDS011;9676;50.916;13.352;2023-04-12T08:13:10;9.10;;;8.30;;
19087;SDS011;9676;50.916;13.352;2023-04-12T08:15:59;12.43;;;8.73;;
19087;SDS011;9676;50.916;13.352;2023-04-12T08:18:49;9.10;;;8.30;;
19087;SDS011;9676;50.916;13.352;2023-04-12T08:21:40;9.20;;;8.40;;
19087;SDS011;9676;50.916;13.352;2023-04-12T08:24:29;9.07;;;8.27;;
19087;SDS011;9676;50.916;13.352;2023-04-12T08:27:18;9.37;;;8.47;;
19087;SDS011;9676;50.916;13.352;2023-04-12T08:30:08;9.20;;;8.40;;
19087;SDS011;9676;50.916;13.352;2023-04-12T08:33:00;9.83;;;8.33;;
19087;SDS011;9676;50.916;13.352;2023-04-12T08:35:49;9.43;;;8.37;;
19087;SDS011;9676;50.916;13.352;2023-04-12T08:38:40;9.50;;;8.60;;
19087;SDS011;9676;50.916;13.352;2023-04-12T08:41:32;9.70;;;8.40;;
19087;SDS011;9676;50.916;13.352;2023-04-12T08:44:29;9.60;;;8.10;;
19087;SDS011;9676;50.916;13.352;2023-04-12T08:47:26;9.40;;;8.50;;
19087;SDS011;9676;50.916;13.352;2023-04-12T08:50:15;8.70;;;8.00;;
19087;SDS011;9676;50.916;13.352;2023-04-12T08:53:05;9.23;;;8.40;;
19087;SDS011;9676;50.916;13.352;2023-04-12T08:55:59;9.33;;;8.30;;
19087;SDS011;9676;50.916;13.352;2023-04-12T08:58:49;9.37;;;8.47;;
19087;SDS011;9676;50.916;13.352;2023-04-12T09:01:40;9.10;;;8.23;;
19087;SDS011;9676;50.916;13.352;2023-04-12T09:04:29;9.60;;;8.60;;
19087;SDS011;9676;50.916;13.352;2023-04-12T09:07:19;9.50;;;8.50;;
19087;SDS011;9676;50.916;13.352;2023-04-12T09:10:28;9.47;;;8.30;;
19087;SDS011;9676;50.916;13.352;2023-04-12T09:13:30;10.87;;;8.63;;
19087;SDS011;9676;50.916;13.352;2023-04-12T09:16:34;9.13;;;8.30;;
19087;SDS011;9676;50.916;13.352;2023-04-12T09:19:31;8.60;;;7.90;;
19087;SDS011;9676;50.916;13.352;2023-04-12T09:22:31;9.20;;;8.40;;
19087;SDS011;9676;50.916;13.352;2023-04-12T09:28:36;9.20;;;8.40;;
19087;SDS011;9676;50.916;13.352;2023-04-12T09:31:25;9.57;;;8.57;;
19087;SDS011;9676;50.916;13.352;2023-04-12T09:34:15;9.37;;;8.30;;
19087;SDS011;9676;50.916;13.352;2023-04-12T09:37:14;8.87;;;8.00;;
19087;SDS011;9676;50.916;13.352;2023-04-12T09:40:05;9.00;;;8.20;;
19087;SDS011;9676;50.916;13.352;2023-04-12T09:42:57;9.83;;;8.40;;
19087;SDS011;9676;50.916;13.352;2023-04-12T09:45:48;9.50;;;8.50;;
19087;SDS011;9676;50.916;13.352;2023-04-12T09:48:37;10.27;;;8.70;;
19087;SDS011;9676;50.916;13.352;2023-04-12T09:51:28;9.20;;;8.30;;
19087;SDS011;9676;50.916;13.352;2023-04-12T09:54:20;9.43;;;8.20;;
19087;SDS011;9676;50.916;13.352;2023-04-12T09:57:10;9.30;;;8.40;;
19087;SDS011;9676;50.916;13.352;2023-04-12T10:00:01;9.43;;;8.50;;
19087;SDS011;9676;50.916;13.352;2023-04-12T10:03:00;9.57;;;8.57;;
19087;SDS011;9676;50.916;13.352;2023-04-12T10:05:50;9.10;;;8.20;;
19087;SDS011;9676;50.916;13.352;2023-04-12T10:08:40;9.67;;;8.60;;
19087;SDS011;9676;50.916;13.352;2023-04-12T10:11:30;9.40;;;8.50;;
19087;SDS011;9676;50.916;13.352;2023-04-12T10:14:21;9.57;;;8.60;;
19087;SDS011;9676;50.916;13.352;2023-04-12T10:17:11;9.20;;;8.30;;
19087;SDS011;9676;50.916;13.352;2023-04-12T10:20:03;10.20;;;8.40;;
19087;SDS011;9676;50.916;13.352;2023-04-12T10:22:55;11.73;;;8.60;;
19087;SDS011;9676;50.916;13.352;2023-04-12T10:25:48;9.63;;;8.70;;
19087;SDS011;9676;50.916;13.352;2023-04-12T10:28:42;9.40;;;8.50;;
19087;SDS011;9676;50.916;13.352;2023-04-12T10:31:34;9.43;;;8.50;;
19087;SDS011;9676;50.916;13.352;2023-04-12T10:34:27;9.50;;;8.50;;
19087;SDS011;9676;50.916;13.352;2023-04-12T10:37:19;9.47;;;8.57;;
19087;SDS011;9676;50.916;13.352;2023-04-12T10:40:09;9.20;;;8.33;;
19087;SDS011;9676;50.916;13.352;2023-04-12T10:43:24;9.17;;;8.30;;
19087;SDS011;9676;50.916;13.352;2023-04-12T10:49:39;9.73;;;8.80;;
19087;SDS011;9676;50.916;13.352;2023-04-12T10:53:21;10.00;;;8.67;;
19087;SDS011;9676;50.916;13.352;2023-04-12T10:56:34;11.90;;;8.87;;
19087;SDS011;9676;50.916;13.352;2023-04-12T10:59:30;9.50;;;8.53;;
19087;SDS011;9676;50.916;13.352;2023-04-12T11:05:57;9.50;;;8.60;;
19087;SDS011;9676;50.916;13.352;2023-04-12T11:09:37;11.20;;;8.80;;
19087;SDS011;9676;50.916;13.352;2023-04-12T11:12:47;9.57;;;8.57;;
19087;SDS011;9676;50.916;13.352;2023-04-12T11:15:37;9.83;;;8.80;;
19087;SDS011;9676;50.916;13.352;2023-04-12T11:18:33;10.03;;;8.90;;
19087;SDS011;9676;50.916;13.352;2023-04-12T11:21:22;9.57;;;8.67;;
19087;SDS011;9676;50.916;13.352;2023-04-12T11:24:13;9.80;;;8.87;;
19087;SDS011;9676;50.916;13.352;2023-04-12T11:27:04;11.20;;;8.90;;
19087;SDS011;9676;50.916;13.352;2023-04-12T11:29:56;10.03;;;9.03;;
19087;SDS011;9676;50.916;13.352;2023-04-12T11:32:46;12.43;;;9.67;;
19087;SDS011;9676;50.916;13.352;2023-04-12T11:35:36;10.20;;;9.10;;
19087;SDS011;9676;50.916;13.352;2023-04-12T11:38:25;10.17;;;9.17;;
19087;SDS011;9676;50.916;13.352;2023-04-12T11:41:15;10.07;;;9.07;;
19087;SDS011;9676;50.916;13.352;2023-04-12T11:44:06;9.93;;;9.00;;
19087;SDS011;9676;50.916;13.352;2023-04-12T11:46:55;12.47;;;9.00;;
19087;SDS011;9676;50.916;13.352;2023-04-12T11:49:45;10.23;;;9.23;;
19087;SDS011;9676;50.916;13.352;2023-04-12T11:52:36;10.10;;;9.10;;
19087;SDS011;9676;50.916;13.352;2023-04-12T11:55:27;10.03;;;9.00;;
19087;SDS011;9676;50.916;13.352;2023-04-12T11:58:21;10.23;;;9.23;;
19087;SDS011;9676;50.916;13.352;2023-04-12T12:01:12;9.87;;;8.87;;
19087;SDS011;9676;50.916;13.352;2023-04-12T12:04:02;10.77;;;9.17;;
19087;SDS011;9676;50.916;13.352;2023-04-12T12:06:53;9.90;;;9.00;;
19087;SDS011;9676;50.916;13.352;2023-04-12T12:09:44;10.60;;;9.00;;
19087;SDS011;9676;50.916;13.352;2023-04-12T12:12:34;10.00;;;9.00;;
19087;SDS011;9676;50.916;13.352;2023-04-12T12:15:23;10.93;;;9.57;;
19087;SDS011;9676;50.916;13.352;2023-04-12T12:18:19;9.87;;;8.87;;
19087;SDS011;9676;50.916;13.352;2023-04-12T12:21:15;10.20;;;9.20;;
19087;SDS011;9676;50.916;13.352;2023-04-12T12:24:05;11.07;;;9.20;;
19087;SDS011;9676;50.916;13.352;2023-04-12T12:27:00;11.40;;;9.27;;
19087;SDS011;9676;50.916;13.352;2023-04-12T12:29:50;11.73;;;9.17;;
19087;SDS011;9676;50.916;13.352;2023-04-12T12:32:42;10.40;;;8.90;;
19087;SDS011;9676;50.916;13.352;2023-04-12T12:35:34;12.77;;;9.13;;
19087;SDS011;9676;50.916;13.352;2023-04-12T12:38:24;9.50;;;8.70;;
19087;SDS011;9676;50.916;13.352;2023-04-12T12:41:24;11.07;;;8.87;;
19087;SDS011;9676;50.916;13.352;2023-04-12T12:44:13;10.00;;;8.93;;
19087;SDS011;9676;50.916;13.352;2023-04-12T12:47:03;10.47;;;9.47;;
19087;SDS011;9676;50.916;13.352;2023-04-12T12:50:00;10.30;;;9.30;;
19087;SDS011;9676;50.916;13.352;2023-04-12T12:52:52;11.97;;;10.67;;
19087;SDS011;9676;50.916;13.352;2023-04-12T12:55:43;10.73;;;9.73;;
19087;SDS011;9676;50.916;13.352;2023-04-12T12:58:33;10.33;;;9.30;;
19087;SDS011;9676;50.916;13.352;2023-04-12T13:01:24;10.30;;;9.27;;
19087;SDS011;9676;50.916;13.352;2023-04-12T13:04:13;10.10;;;9.20;;
19087;SDS011;9676;50.916;13.352;2023-04-12T13:07:03;9.83;;;8.93;;
19087;SDS011;9676;50.916;13.352;2023-04-12T13:09:54;12.20;;;9.10;;
19087;SDS011;9676;50.916;13.352;2023-04-12T13:12:43;10.10;;;9.10;;
19087;SDS011;9676;50.916;13.352;2023-04-12T13:15:33;9.60;;;8.77;;
19087;SDS011;9676;50.916;13.352;2023-04-12T13:18:22;9.93;;;8.97;;
19087;SDS011;9676;50.916;13.352;2023-04-12T13:21:11;9.87;;;8.87;;
19087;SDS011;9676;50.916;13.352;2023-04-12T13:24:01;9.60;;;8.80;;
19087;SDS011;9676;50.916;13.352;2023-04-12T13:26:52;10.20;;;9.00;;
19087;SDS011;9676;50.916;13.352;2023-04-12T13:29:41;11.70;;;9.00;;
19087;SDS011;9676;50.916;13.352;2023-04-12T13:32:31;9.80;;;8.80;;
19087;SDS011;9676;50.916;13.352;2023-04-12T13:35:22;12.80;;;8.73;;
19087;SDS011;9676;50.916;13.352;2023-04-12T13:38:11;9.93;;;8.90;;
19087;SDS011;9676;50.916;13.352;2023-04-12T13:41:01;10.03;;;9.13;;
19087;SDS011;9676;50.916;13.352;2023-04-12T13:43:52;10.93;;;8.70;;
19087;SDS011;9676;50.916;13.352;2023-04-12T13:46:41;9.60;;;8.80;;
19087;SDS011;9676;50.916;13.352;2023-04-12T13:49:31;9.83;;;8.93;;
19087;SDS011;9676;50.916;13.352;2023-04-12T13:52:20;9.57;;;8.77;;
19087;SDS011;9676;50.916;13.352;2023-04-12T13:55:10;9.97;;;9.03;;
19087;SDS011;9676;50.916;13.352;2023-04-12T13:57:59;10.13;;;9.23;;
19087;SDS011;9676;50.916;13.352;2023-04-12T14:00:50;9.67;;;8.70;;
19087;SDS011;9676;50.916;13.352;2023-04-12T14:03:40;9.77;;;8.87;;
19087;SDS011;9676;50.916;13.352;2023-04-12T14:06:30;10.40;;;9.40;;
19087;SDS011;9676;50.916;13.352;2023-04-12T14:09:22;10.17;;;9.03;;
19087;SDS011;9676;50.916;13.352;2023-04-12T14:12:13;10.27;;;9.30;;
19087;SDS011;9676;50.916;13.352;2023-04-12T14:15:03;10.10;;;9.20;;
19087;SDS011;9676;50.916;13.352;2023-04-12T14:17:55;10.03;;;9.17;;
19087;SDS011;9676;50.916;13.352;2023-04-12T14:20:44;9.90;;;9.10;;
19087;SDS011;9676;50.916;13.352;2023-04-12T14:23:38;11.23;;;10.13;;
19087;SDS011;9676;50.916;13.352;2023-04-12T14:26:28;10.20;;;9.20;;
19087;SDS011;9676;50.916;13.352;2023-04-12T14:29:17;10.73;;;9.73;;
19087;SDS011;9676;50.916;13.352;2023-04-12T14:32:07;10.30;;;9.30;;
19087;SDS011;9676;50.916;13.352;2023-04-12T14:34:58;10.30;;;9.30;;
19087;SDS011;9676;50.916;13.352;2023-04-12T14:37:47;10.40;;;9.50;;
19087;SDS011;9676;50.916;13.352;2023-04-12T14:40:37;10.50;;;9.60;;
19087;SDS011;9676;50.916;13.352;2023-04-12T14:43:26;10.40;;;9.43;;
19087;SDS011;9676;50.916;13.352;2023-04-12T14:46:16;9.90;;;9.07;;
19087;SDS011;9676;50.916;13.352;2023-04-12T14:49:05;10.40;;;9.50;;
19087;SDS011;9676;50.916;13.352;2023-04-12T14:51:56;10.10;;;9.20;;
19087;SDS011;9676;50.916;13.352;2023-04-12T14:54:46;10.30;;;9.40;;
19087;SDS011;9676;50.916;13.352;2023-04-12T14:57:35;10.00;;;9.10;;
19087;SDS011;9676;50.916;13.352;2023-04-12T15:00:26;10.47;;;9.57;;
19087;SDS011;9676;50.916;13.352;2023-04-12T15:03:16;9.70;;;8.90;;
19087;SDS011;9676;50.916;13.352;2023-04-12T15:06:07;9.73;;;8.90;;
19087;SDS011;9676;50.916;13.352;2023-04-12T15:08:58;9.70;;;8.90;;
19087;SDS011;9676;50.916;13.352;2023-04-12T15:11:50;9.85;;;8.95;;
19087;SDS011;9676;50.916;13.352;2023-04-12T15:14:42;10.03;;;9.13;;
19087;SDS011;9676;50.916;13.352;2023-04-12T15:17:38;9.73;;;8.90;;
19087;SDS011;9676;50.916;13.352;2023-04-12T15:20:27;10.40;;;9.40;;
19087;SDS011;9676;50.916;13.352;2023-04-12T15:23:16;9.77;;;8.97;;
19087;SDS011;9676;50.916;13.352;2023-04-12T15:26:07;9.70;;;8.90;;
19087;SDS011;9676;50.916;13.352;2023-04-12T15:28:57;9.90;;;9.10;;
19087;SDS011;9676;50.916;13.352;2023-04-12T15:31:47;9.97;;;9.17;;
19087;SDS011;9676;50.916;13.352;2023-04-12T15:34:36;10.00;;;9.20;;
19087;SDS011;9676;50.916;13.352;2023-04-12T15:37:26;10.23;;;9.33;;
19087;SDS011;9676;50.916;13.352;2023-04-12T15:40:15;9.80;;;9.00;;
19087;SDS011;9676;50.916;13.352;2023-04-12T15:43:08;9.93;;;9.13;;
19087;SDS011;9676;50.916;13.352;2023-04-12T15:45:58;10.00;;;9.13;;
19087;SDS011;9676;50.916;13.352;2023-04-12T15:48:48;10.27;;;9.37;;
19087;SDS011;9676;50.916;13.352;2023-04-12T15:51:37;10.10;;;9.30;;
19087;SDS011;9676;50.916;13.352;2023-04-12T15:54:27;9.90;;;9.10;;
19087;SDS011;9676;50.916;13.352;2023-04-12T15:57:17;10.17;;;9.20;;
19087;SDS011;9676;50.916;13.352;2023-04-12T16:00:09;9.80;;;9.00;;
19087;SDS011;9676;50.916;13.352;2023-04-12T16:03:07;10.20;;;9.37;;
19087;SDS011;9676;50.916;13.352;2023-04-12T16:05:59;9.73;;;8.93;;
19087;SDS011;9676;50.916;13.352;2023-04-12T16:08:49;10.10;;;9.23;;
19087;SDS011;9676;50.916;13.352;2023-04-12T16:11:40;10.77;;;9.67;;
19087;SDS011;9676;50.916;13.352;2023-04-12T16:14:30;10.27;;;9.37;;
19087;SDS011;9676;50.916;13.352;2023-04-12T16:17:21;10.47;;;9.50;;
19087;SDS011;9676;50.916;13.352;2023-04-12T16:20:11;10.03;;;9.20;;
19087;SDS011;9676;50.916;13.352;2023-04-12T16:23:03;10.10;;;9.23;;
19087;SDS011;9676;50.916;13.352;2023-04-12T16:25:52;10.13;;;9.23;;
19087;SDS011;9676;50.916;13.352;2023-04-12T16:28:42;9.93;;;9.10;;
19087;SDS011;9676;50.916;13.352;2023-04-12T16:31:31;10.40;;;9.50;;
19087;SDS011;9676;50.916;13.352;2023-04-12T16:34:22;9.70;;;8.90;;
19087;SDS011;9676;50.916;13.352;2023-04-12T16:37:12;9.83;;;9.03;;
19087;SDS011;9676;50.916;13.352;2023-04-12T16:40:01;10.00;;;9.20;;
19087;SDS011;9676;50.916;13.352;2023-04-12T16:42:54;10.20;;;9.30;;
19087;SDS011;9676;50.916;13.352;2023-04-12T16:45:44;9.90;;;9.10;;
19087;SDS011;9676;50.916;13.352;2023-04-12T16:48:35;10.37;;;9.47;;
19087;SDS011;9676;50.916;13.352;2023-04-12T16:51:28;10.43;;;9.23;;
19087;SDS011;9676;50.916;13.352;2023-04-12T16:54:23;9.80;;;9.00;;
19087;SDS011;9676;50.916;13.352;2023-04-12T16:57:13;10.30;;;9.40;;
19087;SDS011;9676;50.916;13.352;2023-04-12T17:00:04;10.17;;;9.27;;
19087;SDS011;9676;50.916;13.352;2023-04-12T17:03:05;10.20;;;9.30;;
19087;SDS011;9676;50.916;13.352;2023-04-12T17:05:55;10.20;;;9.20;;
19087;SDS011;9676;50.916;13.352;2023-04-12T17:08:46;10.17;;;9.13;;
19087;SDS011;9676;50.916;13.352;2023-04-12T17:11:35;9.90;;;9.10;;
19087;SDS011;9676;50.916;13.352;2023-04-12T17:14:26;9.77;;;8.97;;
19087;SDS011;9676;50.916;13.352;2023-04-12T17:17:16;10.23;;;9.33;;
19087;SDS011;9676;50.916;13.352;2023-04-12T17:20:06;9.83;;;9.03;;